sensor_id;sensor_type;location;lat;lon;timestamp;pressure;altitude;pressure_sealevel;temperature;humidity
45113;BME280;30873;53.908;27.576;2023-05-25T00:02:15;1018.2;;;21.8;77.3
45113;BME280;30873;53.908;27.576;2023-05-25T00:06:25;1018.2;;;21.6;83.8
45113;BME280;30873;53.908;27.576;2023-05-25T00:12:01;1018.3;;;21.5;84.6
45113;BME280;30873;53.908;27.576;2023-05-25T00:16:47;1018.3;;;21.5;83.9
45113;BME280;30873;53.908;27.576;2023-05-25T00:21:25;1018.3;;;21.4;84.5
45113;BME280;30873;53.908;27.576;2023-05-25T00:27:15;1018.3;;;21.4;85.6
45113;BME280;30873;53.908;27.576;2023-05-25T00:31:59;1018.3;;;21.1;90.6
45113;BME280;30873;53.908;27.576;2023-05-25T00:37:15;1018.3;;;20.9;93.4
45113;BME280;30873;53.908;27.576;2023-05-25T00:41:37;1018.3;;;20.8;93.7
45113;BME280;30873;53.908;27.576;2023-05-25T00:46:25;1018.3;;;20.7;96.1
45113;BME280;30873;53.908;27.576;2023-05-25T00:51:50;1018.3;;;20.6;98.9
45113;BME280;30873;53.908;27.576;2023-05-25T00:56:37;1018.2;;;20.5;99.4
45113;BME280;30873;53.908;27.576;2023-05-25T01:01:25;1018.2;;;20.4;99.9
45113;BME280;30873;53.908;27.576;2023-05-25T01:06:59;1018.2;;;20.3;100
45113;BME280;30873;53.908;27.576;2023-05-25T01:11:26;1018.1;;;20.3;100
45113;BME280;30873;53.908;27.576;2023-05-25T01:17:15;1018.1;;;20.2;100
45113;BME280;30873;53.908;27.576;2023-05-25T01:22:17;1018.1;;;20.1;100
45113;BME280;30873;53.908;27.576;2023-05-25T01:26:48;1018.1;;;20;100
45113;BME280;30873;53.908;27.576;2023-05-25T01:31:25;1018.1;;;20;100
45113;BME280;30873;53.908;27.576;2023-05-25T01:36:59;1018;;;20;100
45113;BME280;30873;53.908;27.576;2023-05-25T01:42:03;1018.1;;;19.9;100
45113;BME280;30873;53.908;27.576;2023-05-25T01:46:37;1018.1;;;19.8;100
45113;BME280;30873;53.908;27.576;2023-05-25T01:51:52;1018.1;;;19.8;100
45113;BME280;30873;53.908;27.576;2023-05-25T01:57:05;1018.1;;;19.7;100
45113;BME280;30873;53.908;27.576;2023-05-25T02:01:25;1018.1;;;19.7;100
45113;BME280;30873;53.908;27.576;2023-05-25T02:06:25;1018.1;;;19.7;100
45113;BME280;30873;53.908;27.576;2023-05-25T02:11:49;1018.2;;;19.6;100
45113;BME280;30873;53.908;27.576;2023-05-25T02:17:03;1018.2;;;19.6;100
45113;BME280;30873;53.908;27.576;2023-05-25T02:21:37;1018.3;;;19.7;100
45113;BME280;30873;53.908;27.576;2023-05-25T02:26:39;1018.4;;;19.7;100
45113;BME280;30873;53.908;27.576;2023-05-25T02:31:53;1018.4;;;19.7;100
45113;BME280;30873;53.908;27.576;2023-05-25T02:36:25;1018.4;;;19.7;100
45113;BME280;30873;53.908;27.576;2023-05-25T02:41:51;1018.4;;;19.8;100
45113;BME280;30873;53.908;27.576;2023-05-25T02:46:51;1018.4;;;19.7;100
45113;BME280;30873;53.908;27.576;2023-05-25T02:51:25;1018.4;;;19.6;100
45113;BME280;30873;53.908;27.576;2023-05-25T02:57:17;1018.4;;;19.7;100
45113;BME280;30873;53.908;27.576;2023-05-25T03:02:05;1018.4;;;19.8;100
45113;BME280;30873;53.908;27.576;2023-05-25T03:07:17;1018.5;;;19.9;100
45113;BME280;30873;53.908;27.576;2023-05-25T03:11:47;1018.5;;;20;100
45113;BME280;30873;53.908;27.576;2023-05-25T03:16:25;1018.5;;;20.2;100
45113;BME280;30873;53.908;27.576;2023-05-25T03:22:03;1018.5;;;20.4;100
45113;BME280;30873;53.908;27.576;2023-05-25T03:26:35;1018.6;;;20.5;99.9
45113;BME280;30873;53.908;27.576;2023-05-25T03:32:17;1018.6;;;20.7;98
45113;BME280;30873;53.908;27.576;2023-05-25T03:37:03;1018.7;;;20.7;94.5
45113;BME280;30873;53.908;27.576;2023-05-25T03:41:25;1018.7;;;20.8;92.4
45113;BME280;30873;53.908;27.576;2023-05-25T03:47:03;1018.8;;;20.9;91.2
45113;BME280;30873;53.908;27.576;2023-05-25T03:51:37;1018.8;;;21;86.7
45113;BME280;30873;53.908;27.576;2023-05-25T03:56:49;1018.9;;;21;85.7
45113;BME280;30873;53.908;27.576;2023-05-25T04:02:17;1018.9;;;21.2;83.3
45113;BME280;30873;53.908;27.576;2023-05-25T04:06:51;1018.9;;;21.5;79.8
45113;BME280;30873;53.908;27.576;2023-05-25T04:11:51;1018.8;;;21.8;75.8
45113;BME280;30873;53.908;27.576;2023-05-25T04:16:49;1018.8;;;22.1;73.4
45113;BME280;30873;53.908;27.576;2023-05-25T04:22:17;1018.8;;;22.1;72.1
45113;BME280;30873;53.908;27.576;2023-05-25T04:26:51;1018.8;;;22.5;70.1
45113;BME280;30873;53.908;27.576;2023-05-25T04:31:37;1018.8;;;22.9;67.3
45113;BME280;30873;53.908;27.576;2023-05-25T04:36:37;1018.8;;;23.4;64.1
45113;BME280;30873;53.908;27.576;2023-05-25T04:42:17;1018.8;;;24;59.6
45113;BME280;30873;53.908;27.576;2023-05-25T04:47:17;1018.8;;;24.2;56.2
45113;BME280;30873;53.908;27.576;2023-05-25T04:52:17;1018.8;;;24.6;54.5
45113;BME280;30873;53.908;27.576;2023-05-25T04:57:05;1018.9;;;24.8;53.2
45113;BME280;30873;53.908;27.576;2023-05-25T05:01:37;1018.9;;;25.1;52
45113;BME280;30873;53.908;27.576;2023-05-25T05:07:05;1018.9;;;25.1;50.8
45113;BME280;30873;53.908;27.576;2023-05-25T05:12:01;1018.9;;;25.1;50.2
45113;BME280;30873;53.908;27.576;2023-05-25T05:17:17;1018.9;;;25.4;49.2
45113;BME280;30873;53.908;27.576;2023-05-25T05:21:37;1018.8;;;26.1;47.3
45113;BME280;30873;53.908;27.576;2023-05-25T05:27:15;1018.8;;;26.7;45.3
45113;BME280;30873;53.908;27.576;2023-05-25T05:32:05;1018.8;;;27;43.5
45113;BME280;30873;53.908;27.576;2023-05-25T05:37:15;1018.8;;;27.4;42.2
45113;BME280;30873;53.908;27.576;2023-05-25T05:41:49;1018.9;;;27.9;40.3
45113;BME280;30873;53.908;27.576;2023-05-25T05:46:49;1018.9;;;28.4;39.2
45113;BME280;30873;53.908;27.576;2023-05-25T05:52:01;1018.9;;;28.6;38.2
45113;BME280;30873;53.908;27.576;2023-05-25T05:56:25;1018.9;;;28.7;36.7
45113;BME280;30873;53.908;27.576;2023-05-25T06:02:17;1018.9;;;29;36.2
45113;BME280;30873;53.908;27.576;2023-05-25T06:07:05;1018.9;;;29.3;35.5
45113;BME280;30873;53.908;27.576;2023-05-25T06:11:37;1018.8;;;29.7;35.1
45113;BME280;30873;53.908;27.576;2023-05-25T06:17:03;1018.8;;;30.1;33.3
45113;BME280;30873;53.908;27.576;2023-05-25T06:21:49;1018.7;;;30.3;32.9
45113;BME280;30873;53.908;27.576;2023-05-25T06:26:49;1018.7;;;30.1;32.8
45113;BME280;30873;53.908;27.576;2023-05-25T06:32:17;1018.7;;;29.5;33.5
45113;BME280;30873;53.908;27.576;2023-05-25T06:37:01;1018.8;;;29.1;33.9
45113;BME280;30873;53.908;27.576;2023-05-25T06:42:03;1018.8;;;28.9;33.6
45113;BME280;30873;53.908;27.576;2023-05-25T06:46:25;1018.8;;;29.2;33.4
45113;BME280;30873;53.908;27.576;2023-05-25T06:52:17;1018.7;;;29;33.8
45113;BME280;30873;53.908;27.576;2023-05-25T06:56:51;1018.7;;;28.9;33.7
45113;BME280;30873;53.908;27.576;2023-05-25T07:01:35;1018.7;;;28.9;33.6
45113;BME280;30873;53.908;27.576;2023-05-25T07:06:25;1018.8;;;29.1;33.1
45113;BME280;30873;53.908;27.576;2023-05-25T07:12:01;1018.7;;;29;33.1
45113;BME280;30873;53.908;27.576;2023-05-25T07:16:49;1018.7;;;29.3;32.8
45113;BME280;30873;53.908;27.576;2023-05-25T07:22:17;1018.7;;;29.4;32.3
45113;BME280;30873;53.908;27.576;2023-05-25T07:27:17;1018.7;;;29.5;31.9
45113;BME280;30873;53.908;27.576;2023-05-25T07:31:49;1018.7;;;29.6;31.8
45113;BME280;30873;53.908;27.576;2023-05-25T07:36:39;1018.7;;;29.7;30.1
45113;BME280;30873;53.908;27.576;2023-05-25T07:42:01;1018.7;;;29.3;30.3
45113;BME280;30873;53.908;27.576;2023-05-25T07:47:17;1018.7;;;29.5;30.2
45113;BME280;30873;53.908;27.576;2023-05-25T07:51:37;1018.6;;;29.6;29.9
45113;BME280;30873;53.908;27.576;2023-05-25T07:57:01;1018.6;;;29.6;28.9
45113;BME280;30873;53.908;27.576;2023-05-25T08:02:17;1018.5;;;29.6;29.5
45113;BME280;30873;53.908;27.576;2023-05-25T08:06:49;1018.5;;;30.1;30
45113;BME280;30873;53.908;27.576;2023-05-25T08:11:47;1018.5;;;30.7;29.8
45113;BME280;30873;53.908;27.576;2023-05-25T08:16:49;1018.6;;;31.1;29.1
45113;BME280;30873;53.908;27.576;2023-05-25T08:21:49;1018.6;;;31.5;28.6
45113;BME280;30873;53.908;27.576;2023-05-25T08:26:37;1018.6;;;31.5;27.3
45113;BME280;30873;53.908;27.576;2023-05-25T08:32:03;1018.5;;;32.4;26.1
45113;BME280;30873;53.908;27.576;2023-05-25T08:37:17;1018.5;;;32.4;25.6
45113;BME280;30873;53.908;27.576;2023-05-25T08:41:25;1018.5;;;32.1;26.3
45113;BME280;30873;53.908;27.576;2023-05-25T08:47:04;1018.5;;;31.8;26.5
45113;BME280;30873;53.908;27.576;2023-05-25T08:51:50;1018.5;;;31.4;26.6
45113;BME280;30873;53.908;27.576;2023-05-25T08:56:48;1018.4;;;31;27
45113;BME280;30873;53.908;27.576;2023-05-25T09:02:20;1018.5;;;31.2;27.2
45113;BME280;30873;53.908;27.576;2023-05-25T09:21:49;1018.5;;;31.7;26.9
45113;BME280;30873;53.908;27.576;2023-05-25T09:26:25;1018.4;;;31.7;26.7
45113;BME280;30873;53.908;27.576;2023-05-25T09:31:25;1018.4;;;32.4;26.4
45113;BME280;30873;53.908;27.576;2023-05-25T09:36:35;1018.4;;;33.8;25.5
45113;BME280;30873;53.908;27.576;2023-05-25T09:42:01;1018.4;;;33.6;25.4
45113;BME280;30873;53.908;27.576;2023-05-25T09:46:37;1018.4;;;33.6;25.7
45113;BME280;30873;53.908;27.576;2023-05-25T09:52:17;1018.4;;;35.8;23.6
45113;BME280;30873;53.908;27.576;2023-05-25T09:57:18;1018.3;;;37.5;22.1
45113;BME280;30873;53.908;27.576;2023-05-25T10:01:49;1018.3;;;38.8;20.5
45113;BME280;30873;53.908;27.576;2023-05-25T10:06:51;1018.3;;;38.9;19.6
45113;BME280;30873;53.908;27.576;2023-05-25T10:11:39;1018.3;;;37.7;20.4
45113;BME280;30873;53.908;27.576;2023-05-25T10:17:19;1018.3;;;36.1;21.5
45113;BME280;30873;53.908;27.576;2023-05-25T10:21:25;1018.3;;;34.1;22.6
45113;BME280;30873;53.908;27.576;2023-05-25T10:26:51;1018.2;;;33.6;23
45113;BME280;30873;53.908;27.576;2023-05-25T10:31:53;1018.2;;;33.4;23
45113;BME280;30873;53.908;27.576;2023-05-25T10:36:37;1018.1;;;36.8;20.9
45113;BME280;30873;53.908;27.576;2023-05-25T10:41:45;1018;;;39.5;19.2
45113;BME280;30873;53.908;27.576;2023-05-25T10:46:49;1018;;;39.2;18.6
45113;BME280;30873;53.908;27.576;2023-05-25T10:52:03;1018;;;36;20.9
45113;BME280;30873;53.908;27.576;2023-05-25T10:56:35;1018;;;34.6;22.1
45113;BME280;30873;53.908;27.576;2023-05-25T11:02:04;1018;;;33.8;22.9
45113;BME280;30873;53.908;27.576;2023-05-25T11:07:17;1018;;;32.8;23.7
45113;BME280;30873;53.908;27.576;2023-05-25T11:11:59;1018;;;32.3;24.4
45113;BME280;30873;53.908;27.576;2023-05-25T11:17:04;1017.9;;;32;24.7
45113;BME280;30873;53.908;27.576;2023-05-25T11:21:49;1017.9;;;31.7;24.9
45113;BME280;30873;53.908;27.576;2023-05-25T11:26:26;1017.9;;;31.8;24.9
45113;BME280;30873;53.908;27.576;2023-05-25T11:31:28;1017.8;;;33.5;23.9
45113;BME280;30873;53.908;27.576;2023-05-25T11:36:53;1017.8;;;34.5;22.7
45113;BME280;30873;53.908;27.576;2023-05-25T11:42:18;1017.7;;;34.1;22.6
45113;BME280;30873;53.908;27.576;2023-05-25T11:46:49;1017.7;;;33.7;23.2
45113;BME280;30873;53.908;27.576;2023-05-25T11:51:49;1017.7;;;33.3;23.4
45113;BME280;30873;53.908;27.576;2023-05-25T11:57:03;1017.7;;;33;23.9
45113;BME280;30873;53.908;27.576;2023-05-25T12:01:37;1017.7;;;32.8;24.2
45113;BME280;30873;53.908;27.576;2023-05-25T12:07:17;1017.7;;;32.7;23.8
45113;BME280;30873;53.908;27.576;2023-05-25T12:12:18;1017.7;;;32.7;23.8
45113;BME280;30873;53.908;27.576;2023-05-25T12:16:37;1017.7;;;32.9;23.8
45113;BME280;30873;53.908;27.576;2023-05-25T12:21:27;1017.6;;;33.1;23.3
45113;BME280;30873;53.908;27.576;2023-05-25T13:36:51;1017;;;43.5;13.9
45113;BME280;30873;53.908;27.576;2023-05-25T13:41:25;1017;;;44.2;13.7
45113;BME280;30873;53.908;27.576;2023-05-25T13:46:49;1016.9;;;44.3;13.5
45113;BME280;30873;53.908;27.576;2023-05-25T13:52:19;1016.9;;;43.4;14.1
45113;BME280;30873;53.908;27.576;2023-05-25T13:56:49;1017;;;40.2;15.8
45113;BME280;30873;53.908;27.576;2023-05-25T14:02:19;1017;;;37.5;17.6
45113;BME280;30873;53.908;27.576;2023-05-25T14:07:03;1017;;;38;17.6
45113;BME280;30873;53.908;27.576;2023-05-25T14:12:19;1016.9;;;40.6;16.2
45113;BME280;30873;53.908;27.576;2023-05-25T14:16:25;1016.9;;;40.4;16.3
45113;BME280;30873;53.908;27.576;2023-05-25T14:21:37;1016.9;;;42;15.3
45113;BME280;30873;53.908;27.576;2023-05-25T14:27:03;1016.8;;;43.2;14.4
45113;BME280;30873;53.908;27.576;2023-05-25T14:31:37;1016.7;;;45;13.4
45113;BME280;30873;53.908;27.576;2023-05-25T14:37:17;1016.7;;;45.3;13.2
45113;BME280;30873;53.908;27.576;2023-05-25T14:42:15;1016.6;;;46;12.8
45113;BME280;30873;53.908;27.576;2023-05-25T14:46:25;1016.6;;;45;13.2
45113;BME280;30873;53.908;27.576;2023-05-25T14:51:52;1016.6;;;43.9;13.6
45113;BME280;30873;53.908;27.576;2023-05-25T14:56:49;1016.5;;;42.7;14.2
45113;BME280;30873;53.908;27.576;2023-05-25T15:01:37;1016.6;;;42.7;14.1
45113;BME280;30873;53.908;27.576;2023-05-25T15:07:19;1016.5;;;43.1;13.9
45113;BME280;30873;53.908;27.576;2023-05-25T15:12:03;1016.5;;;43.5;13.8
45113;BME280;30873;53.908;27.576;2023-05-25T15:17:05;1016.4;;;44.4;13.5
45113;BME280;30873;53.908;27.576;2023-05-25T15:21:37;1016.4;;;44.6;13.2
45113;BME280;30873;53.908;27.576;2023-05-25T15:27:19;1016.4;;;43.3;14
45113;BME280;30873;53.908;27.576;2023-05-25T15:31:51;1016.4;;;42.5;14.4
45113;BME280;30873;53.908;27.576;2023-05-25T15:36:26;1016.4;;;42.6;14.7
45113;BME280;30873;53.908;27.576;2023-05-25T15:41:37;1016.4;;;42.2;15.3
45113;BME280;30873;53.908;27.576;2023-05-25T15:47:19;1016.4;;;41.4;15.5
45113;BME280;30873;53.908;27.576;2023-05-25T15:52:17;1016.4;;;41.3;15.5
45113;BME280;30873;53.908;27.576;2023-05-25T15:57:19;1016.4;;;41.6;15.5
45113;BME280;30873;53.908;27.576;2023-05-25T16:02:19;1016.5;;;39.4;16.8
45113;BME280;30873;53.908;27.576;2023-05-25T16:06:25;1016.5;;;36.8;18.6
45113;BME280;30873;53.908;27.576;2023-05-25T16:11:25;1016.6;;;35;20.1
45113;BME280;30873;53.908;27.576;2023-05-25T16:16:51;1016.6;;;33.7;21.5
45113;BME280;30873;53.908;27.576;2023-05-25T16:22:19;1016.6;;;32.4;23
45113;BME280;30873;53.908;27.576;2023-05-25T16:26:37;1016.7;;;31.8;23.8
45113;BME280;30873;53.908;27.576;2023-05-25T16:32:03;1016.7;;;32.7;23.4
45113;BME280;30873;53.908;27.576;2023-05-25T16:37:05;1016.7;;;32.9;23.4
45113;BME280;30873;53.908;27.576;2023-05-25T16:42:05;1016.6;;;32.1;24.5
45113;BME280;30873;53.908;27.576;2023-05-25T16:46:25;1016.6;;;31.4;25.5
45113;BME280;30873;53.908;27.576;2023-05-25T16:51:37;1016.7;;;31;26.1
45113;BME280;30873;53.908;27.576;2023-05-25T16:57:03;1016.7;;;30.4;27.2
45113;BME280;30873;53.908;27.576;2023-05-25T17:01:25;1016.7;;;30;28
45113;BME280;30873;53.908;27.576;2023-05-25T17:07:05;1016.8;;;30.6;27.9
45113;BME280;30873;53.908;27.576;2023-05-25T17:12:19;1016.8;;;31;27.5
45113;BME280;30873;53.908;27.576;2023-05-25T17:16:39;1016.8;;;30.2;28.3
45113;BME280;30873;53.908;27.576;2023-05-25T17:22:05;1016.7;;;29.9;28.6
45113;BME280;30873;53.908;27.576;2023-05-25T17:26:25;1016.8;;;29.3;29.4
45113;BME280;30873;53.908;27.576;2023-05-25T17:31:25;1016.9;;;28.8;30.3
45113;BME280;30873;53.908;27.576;2023-05-25T17:37:19;1017;;;28.5;31.1
45113;BME280;30873;53.908;27.576;2023-05-25T17:42:04;1017;;;28.7;31.2
45113;BME280;30873;53.908;27.576;2023-05-25T17:47:19;1017.1;;;29;30.9
45113;BME280;30873;53.908;27.576;2023-05-25T17:51:37;1017.1;;;28.9;31.2
45113;BME280;30873;53.908;27.576;2023-05-25T17:56:49;1017.2;;;28.4;32
45113;BME280;30873;53.908;27.576;2023-05-25T18:01:49;1017.2;;;28;32.8
45113;BME280;30873;53.908;27.576;2023-05-25T18:06:37;1017.3;;;27.5;33.7
45113;BME280;30873;53.908;27.576;2023-05-25T18:11:25;1017.3;;;27.2;34.3
45113;BME280;30873;53.908;27.576;2023-05-25T18:17:02;1017.3;;;26.9;34.9
45113;BME280;30873;53.908;27.576;2023-05-25T18:21:25;1017.3;;;26.7;35.5
45113;BME280;30873;53.908;27.576;2023-05-25T18:27:19;1017.4;;;26.4;35.9
45113;BME280;30873;53.908;27.576;2023-05-25T18:32:19;1017.4;;;26.3;36.3
45113;BME280;30873;53.908;27.576;2023-05-25T18:36:39;1017.4;;;26.2;36.7
45113;BME280;30873;53.908;27.576;2023-05-25T18:41:49;1017.4;;;26.1;37.3
45113;BME280;30873;53.908;27.576;2023-05-25T18:47:04;1017.4;;;25.9;37.9
45113;BME280;30873;53.908;27.576;2023-05-25T18:52:17;1017.4;;;25.8;38.6
45113;BME280;30873;53.908;27.576;2023-05-25T18:56:25;1017.5;;;25.7;39.2
45113;BME280;30873;53.908;27.576;2023-05-25T19:02:04;1017.5;;;25.5;39.7
45113;BME280;30873;53.908;27.576;2023-05-25T19:07:05;1017.6;;;25.4;40.2
45113;BME280;30873;53.908;27.576;2023-05-25T19:11:49;1017.6;;;25.3;40.6
45113;BME280;30873;53.908;27.576;2023-05-25T19:16:37;1017.5;;;25.3;41
45113;BME280;30873;53.908;27.576;2023-05-25T19:21:47;1017.6;;;25.2;41.3
45113;BME280;30873;53.908;27.576;2023-05-25T19:27:03;1017.6;;;25.2;41.6
45113;BME280;30873;53.908;27.576;2023-05-25T19:31:49;1017.7;;;25.2;42
45113;BME280;30873;53.908;27.576;2023-05-25T19:37:05;1017.6;;;25;42.8
45113;BME280;30873;53.908;27.576;2023-05-25T19:42:18;1017.6;;;24.8;43.5
45113;BME280;30873;53.908;27.576;2023-05-25T19:46:25;1017.6;;;24.8;44.1
45113;BME280;30873;53.908;27.576;2023-05-25T19:52:04;1017.6;;;24.7;44.4
45113;BME280;30873;53.908;27.576;2023-05-25T19:56:49;1017.6;;;24.7;44.7
45113;BME280;30873;53.908;27.576;2023-05-25T20:01:26;1017.6;;;24.6;45.2
45113;BME280;30873;53.908;27.576;2023-05-25T20:07:19;1017.7;;;24.5;46
45113;BME280;30873;53.908;27.576;2023-05-25T20:12:01;1017.7;;;24.2;47.1
45113;BME280;30873;53.908;27.576;2023-05-25T20:17:03;1017.7;;;24.1;48.2
45113;BME280;30873;53.908;27.576;2023-05-25T20:21:39;1017.7;;;24;48.7
45113;BME280;30873;53.908;27.576;2023-05-25T20:26:37;1017.7;;;24.1;49.3
45113;BME280;30873;53.908;27.576;2023-05-25T20:31:52;1017.7;;;24;50.4
45113;BME280;30873;53.908;27.576;2023-05-25T20:36:49;1017.7;;;24;51.3
45113;BME280;30873;53.908;27.576;2023-05-25T20:41:49;1017.7;;;23.9;51.9
45113;BME280;30873;53.908;27.576;2023-05-25T20:47:04;1017.7;;;23.8;52.5
45113;BME280;30873;53.908;27.576;2023-05-25T20:52:05;1017.7;;;23.7;53.1
45113;BME280;30873;53.908;27.576;2023-05-25T20:57:05;1017.8;;;23.7;53.5
45113;BME280;30873;53.908;27.576;2023-05-25T21:02:20;1017.7;;;23.7;53.5
45113;BME280;30873;53.908;27.576;2023-05-25T21:06:49;1017.7;;;23.8;53.1
45113;BME280;30873;53.908;27.576;2023-05-25T21:11:26;1017.7;;;23.8;53.1
45113;BME280;30873;53.908;27.576;2023-05-25T21:16:28;1017.7;;;23.8;53.3
45113;BME280;30873;53.908;27.576;2023-05-25T21:22:20;1017.7;;;23.8;52.7
45113;BME280;30873;53.908;27.576;2023-05-25T21:26:40;1017.7;;;23.8;52.5
45113;BME280;30873;53.908;27.576;2023-05-25T21:32:04;1017.6;;;23.8;52.9
45113;BME280;30873;53.908;27.576;2023-05-25T21:37:05;1017.6;;;23.7;53.5
45113;BME280;30873;53.908;27.576;2023-05-25T21:41:52;1017.6;;;23.7;55.7
45113;BME280;30873;53.908;27.576;2023-05-25T21:46:48;1017.7;;;23.5;60
45113;BME280;30873;53.908;27.576;2023-05-25T21:51:38;1017.7;;;23.3;61
45113;BME280;30873;53.908;27.576;2023-05-25T21:57:18;1017.7;;;23.1;62.3
45113;BME280;30873;53.908;27.576;2023-05-25T22:01:50;1017.7;;;23;64
45113;BME280;30873;53.908;27.576;2023-05-25T22:07:02;1017.7;;;22.7;65.9
45113;BME280;30873;53.908;27.576;2023-05-25T22:12:18;1017.7;;;22.6;67.4
45113;BME280;30873;53.908;27.576;2023-05-25T22:16:50;1017.7;;;22.5;68.8
45113;BME280;30873;53.908;27.576;2023-05-25T22:22:04;1017.7;;;22.4;69.3
45113;BME280;30873;53.908;27.576;2023-05-25T22:26:48;1017.7;;;22.3;69.8
45113;BME280;30873;53.908;27.576;2023-05-25T22:31:36;1017.7;;;22.2;70.5
45113;BME280;30873;53.908;27.576;2023-05-25T22:37:19;1017.7;;;22.1;71.1
45113;BME280;30873;53.908;27.576;2023-05-25T22:42:02;1017.6;;;21.9;72.9
45113;BME280;30873;53.908;27.576;2023-05-25T22:47:18;1017.6;;;21.8;74.1
45113;BME280;30873;53.908;27.576;2023-05-25T22:51:48;1017.6;;;21.8;74.6
45113;BME280;30873;53.908;27.576;2023-05-25T22:56:48;1017.7;;;21.7;76.1
45113;BME280;30873;53.908;27.576;2023-05-25T23:01:48;1017.7;;;21.6;78.3
45113;BME280;30873;53.908;27.576;2023-05-25T23:06:26;1017.8;;;21.7;81.5
45113;BME280;30873;53.908;27.576;2023-05-25T23:11:48;1017.8;;;21.6;85.6
45113;BME280;30873;53.908;27.576;2023-05-25T23:17:02;1017.8;;;21.6;87.7
45113;BME280;30873;53.908;27.576;2023-05-25T23:21:26;1017.8;;;21.6;89.1
45113;BME280;30873;53.908;27.576;2023-05-25T23:27:16;1017.8;;;21.5;91
45113;BME280;30873;53.908;27.576;2023-05-25T23:32:18;1017.8;;;21.5;92.2
45113;BME280;30873;53.908;27.576;2023-05-25T23:36:48;1017.8;;;21.3;94
45113;BME280;30873;53.908;27.576;2023-05-25T23:41:50;1017.8;;;21.1;96.6
45113;BME280;30873;53.908;27.576;2023-05-25T23:46:28;1017.9;;;21.1;97
45113;BME280;30873;53.908;27.576;2023-05-25T23:52:16;1017.9;;;21.1;97.7
45113;BME280;30873;53.908;27.576;2023-05-25T23:56:50;1017.8;;;21;99.8
